sensor_id;sensor_type;location;lat;lon;timestamp;pressure;altitude;pressure_sealevel;temperature;humidity
61018;BME280;48171;51.550;5.434;2023-04-03T00:01:00;102979.28;;;2.31;96.50
61018;BME280;48171;51.550;5.434;2023-04-03T00:03:26;102982.56;;;2.28;97.13
61018;BME280;48171;51.550;5.434;2023-04-03T00:05:51;102986.78;;;2.26;97.71
61018;BME280;48171;51.550;5.434;2023-04-03T00:08:17;102982.56;;;2.28;98.26
61018;BME280;48171;51.550;5.434;2023-04-03T00:10:42;102980.91;;;2.29;98.16
61018;BME280;48171;51.550;5.434;2023-04-03T00:13:08;102992.94;;;2.27;97.88
61018;BME280;48171;51.550;5.434;2023-04-03T00:15:34;102991.84;;;2.23;97.90
61018;BME280;48171;51.550;5.434;2023-04-03T00:18:01;102985.53;;;2.19;98.04
61018;BME280;48171;51.550;5.434;2023-04-03T00:20:26;102991.34;;;2.15;97.63
61018;BME280;48171;51.550;5.434;2023-04-03T00:22:52;102992.69;;;2.09;97.96
61018;BME280;48171;51.550;5.434;2023-04-03T00:25:17;102994.59;;;2.11;98.19
61018;BME280;48171;51.550;5.434;2023-04-03T00:27:43;102991.69;;;2.07;97.44
61018;BME280;48171;51.550;5.434;2023-04-03T00:30:11;103001.13;;;2.05;97.07
61018;BME280;48171;51.550;5.434;2023-04-03T00:32:38;102998.13;;;1.98;97.32
61018;BME280;48171;51.550;5.434;2023-04-03T00:35:03;103003.16;;;1.95;97.20
61018;BME280;48171;51.550;5.434;2023-04-03T00:37:29;103000.03;;;1.88;96.87
61018;BME280;48171;51.550;5.434;2023-04-03T00:39:54;103009.47;;;1.86;97.81
61018;BME280;48171;51.550;5.434;2023-04-03T00:42:19;103006.88;;;1.86;98.05
61018;BME280;48171;51.550;5.434;2023-04-03T00:47:11;103012.50;;;1.78;97.73
61018;BME280;48171;51.550;5.434;2023-04-03T00:49:38;103012.41;;;1.77;98.34
61018;BME280;48171;51.550;5.434;2023-04-03T00:52:06;103019.44;;;1.78;98.63
61018;BME280;48171;51.550;5.434;2023-04-03T00:54:35;103016.84;;;1.78;98.47
61018;BME280;48171;51.550;5.434;2023-04-03T00:57:02;103017.50;;;1.75;98.42
61018;BME280;48171;51.550;5.434;2023-04-03T00:59:33;103020.13;;;1.75;99.02
61018;BME280;48171;51.550;5.434;2023-04-03T01:02:00;103014.13;;;1.76;99.30
61018;BME280;48171;51.550;5.434;2023-04-03T01:04:40;103012.50;;;1.78;99.25
61018;BME280;48171;51.550;5.434;2023-04-03T01:07:07;103008.47;;;1.84;97.78
61018;BME280;48171;51.550;5.434;2023-04-03T01:09:33;103016.91;;;1.79;98.26
61018;BME280;48171;51.550;5.434;2023-04-03T01:12:13;103011.53;;;1.76;99.12
61018;BME280;48171;51.550;5.434;2023-04-03T01:14:41;103015.63;;;1.73;99.33
61018;BME280;48171;51.550;5.434;2023-04-03T01:22:40;103019.44;;;1.78;100.00
61018;BME280;48171;51.550;5.434;2023-04-03T01:25:09;103016.00;;;1.79;100.00
61018;BME280;48171;51.550;5.434;2023-04-03T01:27:34;103024.03;;;1.82;100.00
61018;BME280;48171;51.550;5.434;2023-04-03T01:29:59;103025.72;;;1.82;100.00
61018;BME280;48171;51.550;5.434;2023-04-03T01:32:25;103020.44;;;1.80;100.00
61018;BME280;48171;51.550;5.434;2023-04-03T01:34:50;103016.44;;;1.72;100.00
61018;BME280;48171;51.550;5.434;2023-04-03T01:37:15;103021.22;;;1.79;100.00
61018;BME280;48171;51.550;5.434;2023-04-03T01:39:40;103020.34;;;1.78;100.00
61018;BME280;48171;51.550;5.434;2023-04-03T01:42:06;103018.63;;;1.79;100.00
61018;BME280;48171;51.550;5.434;2023-04-03T01:44:31;103026.44;;;1.79;100.00
61018;BME280;48171;51.550;5.434;2023-04-03T01:46:56;103023.84;;;1.79;100.00
61018;BME280;48171;51.550;5.434;2023-04-03T01:49:22;103021.22;;;1.79;100.00
61018;BME280;48171;51.550;5.434;2023-04-03T01:51:47;103025.44;;;1.77;100.00
61018;BME280;48171;51.550;5.434;2023-04-03T01:54:12;103021.84;;;1.75;100.00
61018;BME280;48171;51.550;5.434;2023-04-03T01:56:37;103018.06;;;1.70;99.83
61018;BME280;48171;51.550;5.434;2023-04-03T01:59:04;103017.22;;;1.71;99.75
61018;BME280;48171;51.550;5.434;2023-04-03T02:01:29;103023.16;;;1.68;99.63
61018;BME280;48171;51.550;5.434;2023-04-03T02:03:54;103028.97;;;1.64;99.99
61018;BME280;48171;51.550;5.434;2023-04-03T02:06:20;103022.75;;;1.62;100.00
61018;BME280;48171;51.550;5.434;2023-04-03T02:08:45;103029.75;;;1.63;100.00
61018;BME280;48171;51.550;5.434;2023-04-03T02:11:10;103020.94;;;1.61;100.00
61018;BME280;48171;51.550;5.434;2023-04-03T02:13:36;103025.38;;;1.62;100.00
61018;BME280;48171;51.550;5.434;2023-04-03T02:16:07;103028.88;;;1.63;99.97
61018;BME280;48171;51.550;5.434;2023-04-03T02:18:32;103018.53;;;1.64;100.00
61018;BME280;48171;51.550;5.434;2023-04-03T02:20:57;103015.00;;;1.64;100.00
61018;BME280;48171;51.550;5.434;2023-04-03T02:23:23;103030.88;;;1.67;99.95
61018;BME280;48171;51.550;5.434;2023-04-03T02:25:48;103027.25;;;1.65;99.92
61018;BME280;48171;51.550;5.434;2023-04-03T02:28:14;103022.66;;;1.60;99.66
61018;BME280;48171;51.550;5.434;2023-04-03T02:30:39;103028.97;;;1.64;100.00
61018;BME280;48171;51.550;5.434;2023-04-03T02:33:04;103037.56;;;1.63;99.34
61018;BME280;48171;51.550;5.434;2023-04-03T02:35:30;103038.28;;;1.60;99.22
61018;BME280;48171;51.550;5.434;2023-04-03T02:37:55;103035.56;;;1.59;99.25
61018;BME280;48171;51.550;5.434;2023-04-03T02:40:20;103039.00;;;1.58;99.42
61018;BME280;48171;51.550;5.434;2023-04-03T02:42:46;103040.69;;;1.57;99.36
61018;BME280;48171;51.550;5.434;2023-04-03T02:45:11;103042.28;;;1.55;99.15
61018;BME280;48171;51.550;5.434;2023-04-03T02:47:36;103049.31;;;1.56;99.21
61018;BME280;48171;51.550;5.434;2023-04-03T02:50:01;103051.91;;;1.56;99.21
61018;BME280;48171;51.550;5.434;2023-04-03T02:52:27;103045.81;;;1.56;98.91
61018;BME280;48171;51.550;5.434;2023-04-03T02:54:52;103050.09;;;1.55;99.15
61018;BME280;48171;51.550;5.434;2023-04-03T02:57:17;103048.41;;;1.56;98.96
61018;BME280;48171;51.550;5.434;2023-04-03T02:59:44;103050.09;;;1.55;99.28
61018;BME280;48171;51.550;5.434;2023-04-03T03:02:10;103048.50;;;1.57;98.98
61018;BME280;48171;51.550;5.434;2023-04-03T03:04:36;103049.19;;;1.55;98.94
61018;BME280;48171;51.550;5.434;2023-04-03T03:07:02;103055.41;;;1.57;99.06
61018;BME280;48171;51.550;5.434;2023-04-03T03:09:28;103051.81;;;1.55;99.16
61018;BME280;48171;51.550;5.434;2023-04-03T03:11:54;103042.19;;;1.54;98.80
61018;BME280;48171;51.550;5.434;2023-04-03T03:14:20;103043.09;;;1.54;99.04
61018;BME280;48171;51.550;5.434;2023-04-03T03:16:45;103043.19;;;1.56;98.76
61018;BME280;48171;51.550;5.434;2023-04-03T03:19:10;103040.59;;;1.56;98.60
61018;BME280;48171;51.550;5.434;2023-04-03T03:21:36;103049.31;;;1.56;98.46
61018;BME280;48171;51.550;5.434;2023-04-03T03:24:01;103044.88;;;1.55;98.55
61018;BME280;48171;51.550;5.434;2023-04-03T03:26:27;103039.59;;;1.54;98.39
61018;BME280;48171;51.550;5.434;2023-04-03T03:28:52;103047.41;;;1.54;98.29
61018;BME280;48171;51.550;5.434;2023-04-03T03:31:17;103053.41;;;1.53;98.52
61018;BME280;48171;51.550;5.434;2023-04-03T03:33:43;103051.69;;;1.53;98.30
61018;BME280;48171;51.550;5.434;2023-04-03T03:36:08;103061.22;;;1.53;98.08
61018;BME280;48171;51.550;5.434;2023-04-03T03:38:33;103053.41;;;1.53;98.37
61018;BME280;48171;51.550;5.434;2023-04-03T03:40:59;103055.13;;;1.52;97.96
61018;BME280;48171;51.550;5.434;2023-04-03T03:43:24;103055.91;;;1.51;98.13
61018;BME280;48171;51.550;5.434;2023-04-03T03:45:51;103061.22;;;1.53;98.08
61018;BME280;48171;51.550;5.434;2023-04-03T03:48:17;103070.66;;;1.51;98.28
61018;BME280;48171;51.550;5.434;2023-04-03T03:50:42;103074.13;;;1.51;98.13
61018;BME280;48171;51.550;5.434;2023-04-03T03:53:08;103074.13;;;1.51;98.06
61018;BME280;48171;51.550;5.434;2023-04-03T03:55:33;103080.28;;;1.52;97.81
61018;BME280;48171;51.550;5.434;2023-04-03T03:57:58;103072.34;;;1.50;97.58
61018;BME280;48171;51.550;5.434;2023-04-03T04:00:25;103076.56;;;1.48;97.79
61018;BME280;48171;51.550;5.434;2023-04-03T04:02:50;103077.34;;;1.47;97.73
61018;BME280;48171;51.550;5.434;2023-04-03T04:05:15;103079.06;;;1.47;98.06
61018;BME280;48171;51.550;5.434;2023-04-03T04:07:40;103079.16;;;1.48;98.11
61018;BME280;48171;51.550;5.434;2023-04-03T04:10:06;103080.88;;;1.48;97.79
61018;BME280;48171;51.550;5.434;2023-04-03T04:12:31;103077.94;;;1.43;97.53
61018;BME280;48171;51.550;5.434;2023-04-03T04:14:57;103081.38;;;1.42;97.39
61018;BME280;48171;51.550;5.434;2023-04-03T04:17:22;103068.72;;;1.35;97.28
61018;BME280;48171;51.550;5.434;2023-04-03T04:19:47;103082.75;;;1.37;97.15
61018;BME280;48171;51.550;5.434;2023-04-03T04:22:13;103073.16;;;1.36;97.82
61018;BME280;48171;51.550;5.434;2023-04-03T04:24:38;103080.13;;;1.37;97.72
61018;BME280;48171;51.550;5.434;2023-04-03T04:27:03;103076.53;;;1.35;97.54
61018;BME280;48171;51.550;5.434;2023-04-03T04:29:29;103080.97;;;1.36;97.84
61018;BME280;48171;51.550;5.434;2023-04-03T04:31:54;103085.16;;;1.34;97.41
61018;BME280;48171;51.550;5.434;2023-04-03T04:34:19;103081.56;;;1.32;97.75
61018;BME280;48171;51.550;5.434;2023-04-03T04:36:45;103076.34;;;1.32;98.00
61018;BME280;48171;51.550;5.434;2023-04-03T04:39:10;103074.53;;;1.31;97.75
61018;BME280;48171;51.550;5.434;2023-04-03T04:41:35;103079.84;;;1.32;97.91
61018;BME280;48171;51.550;5.434;2023-04-03T04:44:00;103082.34;;;1.31;97.93
61018;BME280;48171;51.550;5.434;2023-04-03T04:46:26;103079.53;;;1.28;97.60
61018;BME280;48171;51.550;5.434;2023-04-03T04:48:51;103083.16;;;1.30;98.02
61018;BME280;48171;51.550;5.434;2023-04-03T04:51:17;103091.06;;;1.31;98.04
61018;BME280;48171;51.550;5.434;2023-04-03T04:53:42;103089.25;;;1.30;97.76
61018;BME280;48171;51.550;5.434;2023-04-03T04:56:08;103105.88;;;1.32;98.03
61018;BME280;48171;51.550;5.434;2023-04-03T04:58:33;103104.09;;;1.31;98.03
61018;BME280;48171;51.550;5.434;2023-04-03T05:01:00;103100.47;;;1.29;98.03
61018;BME280;48171;51.550;5.434;2023-04-03T05:03:26;103100.38;;;1.28;97.98
61018;BME280;48171;51.550;5.434;2023-04-03T05:05:51;103101.16;;;1.27;97.77
61018;BME280;48171;51.550;5.434;2023-04-03T05:08:16;103101.97;;;1.26;97.81
61018;BME280;48171;51.550;5.434;2023-04-03T05:10:42;103101.88;;;1.24;97.90
61018;BME280;48171;51.550;5.434;2023-04-03T05:13:07;103101.97;;;1.26;98.08
61018;BME280;48171;51.550;5.434;2023-04-03T05:15:32;103108.84;;;1.25;97.66
61018;BME280;48171;51.550;5.434;2023-04-03T05:17:58;103105.38;;;1.25;97.53
61018;BME280;48171;51.550;5.434;2023-04-03T05:20:23;103111.38;;;1.24;97.73
61018;BME280;48171;51.550;5.434;2023-04-03T05:22:48;103107.97;;;1.25;97.77
61018;BME280;48171;51.550;5.434;2023-04-03T05:25:14;103108.66;;;1.22;97.64
61018;BME280;48171;51.550;5.434;2023-04-03T05:27:39;103109.69;;;1.24;97.54
61018;BME280;48171;51.550;5.434;2023-04-03T05:30:05;103111.47;;;1.25;97.47
61018;BME280;48171;51.550;5.434;2023-04-03T05:32:30;103116.69;;;1.25;97.11
61018;BME280;48171;51.550;5.434;2023-04-03T05:34:56;103115.78;;;1.25;97.29
61018;BME280;48171;51.550;5.434;2023-04-03T05:37:21;103120.09;;;1.24;97.02
61018;BME280;48171;51.550;5.434;2023-04-03T05:39:46;103117.50;;;1.24;97.03
61018;BME280;48171;51.550;5.434;2023-04-03T05:42:12;103117.38;;;1.23;97.15
61018;BME280;48171;51.550;5.434;2023-04-03T05:44:38;103120.22;;;1.26;97.01
61018;BME280;48171;51.550;5.434;2023-04-03T05:47:04;103132.28;;;1.25;96.70
61018;BME280;48171;51.550;5.434;2023-04-03T05:49:29;103134.13;;;1.26;96.54
61018;BME280;48171;51.550;5.434;2023-04-03T05:51:54;103130.63;;;1.26;96.45
61018;BME280;48171;51.550;5.434;2023-04-03T05:54:24;103134.91;;;1.25;96.29
61018;BME280;48171;51.550;5.434;2023-04-03T05:56:51;103135.13;;;1.28;96.43
61018;BME280;48171;51.550;5.434;2023-04-03T05:59:17;103136.03;;;1.29;96.51
61018;BME280;48171;51.550;5.434;2023-04-03T06:01:43;103135.25;;;1.30;96.10
61018;BME280;48171;51.550;5.434;2023-04-03T06:04:08;103136.13;;;1.30;96.47
61018;BME280;48171;51.550;5.434;2023-04-03T06:06:54;103133.63;;;1.32;96.13
61018;BME280;48171;51.550;5.434;2023-04-03T06:09:23;103137.13;;;1.32;95.93
61018;BME280;48171;51.550;5.434;2023-04-03T06:11:48;103140.75;;;1.34;96.45
61018;BME280;48171;51.550;5.434;2023-04-03T06:14:14;103141.66;;;1.35;96.29
61018;BME280;48171;51.550;5.434;2023-04-03T06:16:39;103142.56;;;1.35;95.60
61018;BME280;48171;51.550;5.434;2023-04-03T06:19:06;103148.69;;;1.36;95.90
61018;BME280;48171;51.550;5.434;2023-04-03T06:21:32;103151.38;;;1.37;95.79
61018;BME280;48171;51.550;5.434;2023-04-03T06:23:57;103152.28;;;1.38;95.50
61018;BME280;48171;51.550;5.434;2023-04-03T06:26:23;103152.28;;;1.38;95.41
61018;BME280;48171;51.550;5.434;2023-04-03T06:28:48;103144.59;;;1.39;95.59
61018;BME280;48171;51.550;5.434;2023-04-03T06:31:13;103152.59;;;1.43;95.39
61018;BME280;48171;51.550;5.434;2023-04-03T06:33:39;103152.59;;;1.43;95.39
61018;BME280;48171;51.550;5.434;2023-04-03T06:36:05;103164.91;;;1.45;95.47
61018;BME280;48171;51.550;5.434;2023-04-03T06:38:32;103162.41;;;1.47;95.30
61018;BME280;48171;51.550;5.434;2023-04-03T06:40:57;103164.31;;;1.49;94.75
61018;BME280;48171;51.550;5.434;2023-04-03T06:43:23;103164.41;;;1.51;94.79
61018;BME280;48171;51.550;5.434;2023-04-03T06:45:49;103153.00;;;1.49;94.79
61018;BME280;48171;51.550;5.434;2023-04-03T06:48:14;103165.44;;;1.53;94.94
61018;BME280;48171;51.550;5.434;2023-04-03T06:50:40;103167.25;;;1.54;94.31
61018;BME280;48171;51.550;5.434;2023-04-03T06:53:06;103161.22;;;1.55;94.36
61018;BME280;48171;51.550;5.434;2023-04-03T06:55:32;103168.34;;;1.57;94.02
61018;BME280;48171;51.550;5.434;2023-04-03T06:57:57;103169.34;;;1.59;94.38
61018;BME280;48171;51.550;5.434;2023-04-03T07:00:22;103169.56;;;1.63;94.63
61018;BME280;48171;51.550;5.434;2023-04-03T07:02:47;103181.00;;;1.65;94.14
61018;BME280;48171;51.550;5.434;2023-04-03T07:05:13;103176.78;;;1.67;94.14
61018;BME280;48171;51.550;5.434;2023-04-03T07:07:38;103175.19;;;1.69;94.55
61018;BME280;48171;51.550;5.434;2023-04-03T07:10:05;103178.78;;;1.71;94.31
61018;BME280;48171;51.550;5.434;2023-04-03T07:12:31;103179.78;;;1.73;93.31
61018;BME280;48171;51.550;5.434;2023-04-03T07:14:56;103179.78;;;1.73;93.33
61018;BME280;48171;51.550;5.434;2023-04-03T07:17:21;103179.19;;;1.77;93.66
61018;BME280;48171;51.550;5.434;2023-04-03T07:19:47;103176.72;;;1.78;92.56
61018;BME280;48171;51.550;5.434;2023-04-03T07:22:12;103183.72;;;1.79;92.72
61018;BME280;48171;51.550;5.434;2023-04-03T07:24:38;103188.44;;;1.85;93.18
61018;BME280;48171;51.550;5.434;2023-04-03T07:27:03;103182.44;;;1.86;92.20
61018;BME280;48171;51.550;5.434;2023-04-03T07:29:28;103189.53;;;1.89;92.42
61018;BME280;48171;51.550;5.434;2023-04-03T07:31:54;103190.56;;;1.91;93.81
61018;BME280;48171;51.550;5.434;2023-04-03T07:34:20;103198.66;;;1.95;93.58
61018;BME280;48171;51.550;5.434;2023-04-03T07:36:46;103195.38;;;1.98;92.16
61018;BME280;48171;51.550;5.434;2023-04-03T07:39:11;103194.69;;;2.00;91.81
61018;BME280;48171;51.550;5.434;2023-04-03T07:41:36;103188.75;;;2.03;92.30
61018;BME280;48171;51.550;5.434;2023-04-03T07:44:02;103192.56;;;2.08;92.81
61018;BME280;48171;51.550;5.434;2023-04-03T07:46:27;103196.19;;;2.10;92.16
61018;BME280;48171;51.550;5.434;2023-04-03T07:48:53;103204.31;;;2.15;91.84
61018;BME280;48171;51.550;5.434;2023-04-03T07:51:18;103200.09;;;2.17;91.80
61018;BME280;48171;51.550;5.434;2023-04-03T07:53:44;103207.19;;;2.19;91.05
61018;BME280;48171;51.550;5.434;2023-04-03T07:56:10;103209.91;;;2.21;91.71
61018;BME280;48171;51.550;5.434;2023-04-03T07:58:35;103200.66;;;2.26;91.78
61018;BME280;48171;51.550;5.434;2023-04-03T08:01:02;103206.22;;;2.31;91.67
61018;BME280;48171;51.550;5.434;2023-04-03T08:03:27;103198.28;;;2.29;90.27
61018;BME280;48171;51.550;5.434;2023-04-03T08:05:52;103207.31;;;2.34;90.59
61018;BME280;48171;51.550;5.434;2023-04-03T08:08:21;103199.38;;;2.33;89.71
61018;BME280;48171;51.550;5.434;2023-04-03T08:10:53;103204.28;;;2.42;89.42
61018;BME280;48171;51.550;5.434;2023-04-03T08:13:20;103214.00;;;2.44;88.33
61018;BME280;48171;51.550;5.434;2023-04-03T08:15:46;103202.06;;;2.48;90.59
61018;BME280;48171;51.550;5.434;2023-04-03T08:18:11;103200.66;;;2.53;90.50
61018;BME280;48171;51.550;5.434;2023-04-03T08:20:37;103211.41;;;2.57;89.49
61018;BME280;48171;51.550;5.434;2023-04-03T08:23:03;103204.66;;;2.61;89.88
61018;BME280;48171;51.550;5.434;2023-04-03T08:25:28;103211.00;;;2.65;87.11
61018;BME280;48171;51.550;5.434;2023-04-03T08:27:54;103211.06;;;2.66;86.31
61018;BME280;48171;51.550;5.434;2023-04-03T08:30:20;103203.56;;;2.71;86.95
61018;BME280;48171;51.550;5.434;2023-04-03T08:32:45;103215.16;;;2.76;85.59
61018;BME280;48171;51.550;5.434;2023-04-03T08:35:11;103212.78;;;2.79;86.47
61018;BME280;48171;51.550;5.434;2023-04-03T08:37:36;103213.03;;;2.84;85.20
61018;BME280;48171;51.550;5.434;2023-04-03T08:40:04;103212.44;;;2.88;84.74
61018;BME280;48171;51.550;5.434;2023-04-03T08:42:42;103224.16;;;2.94;82.18
61018;BME280;48171;51.550;5.434;2023-04-03T08:45:46;103220.13;;;2.99;82.88
61018;BME280;48171;51.550;5.434;2023-04-03T08:48:44;103211.47;;;3.00;82.05
61018;BME280;48171;51.550;5.434;2023-04-03T08:51:19;103224.84;;;3.05;78.82
61018;BME280;48171;51.550;5.434;2023-04-03T08:54:06;103225.91;;;3.09;75.70
61018;BME280;48171;51.550;5.434;2023-04-03T08:56:39;103211.78;;;3.05;77.05
61018;BME280;48171;51.550;5.434;2023-04-03T08:59:11;103221.16;;;3.16;74.87
61018;BME280;48171;51.550;5.434;2023-04-03T09:01:39;103224.88;;;3.20;75.95
61018;BME280;48171;51.550;5.434;2023-04-03T09:04:14;103226.16;;;3.27;76.61
61018;BME280;48171;51.550;5.434;2023-04-03T09:06:42;103222.22;;;3.33;74.99
61018;BME280;48171;51.550;5.434;2023-04-03T09:09:36;103222.50;;;3.38;73.33
61018;BME280;48171;51.550;5.434;2023-04-03T09:12:24;103215.81;;;3.43;74.04
61018;BME280;48171;51.550;5.434;2023-04-03T09:15:11;103224.13;;;3.51;73.82
61018;BME280;48171;51.550;5.434;2023-04-03T09:17:46;103232.34;;;3.57;71.72
61018;BME280;48171;51.550;5.434;2023-04-03T09:22:51;103234.78;;;3.69;71.77
61018;BME280;48171;51.550;5.434;2023-04-03T09:25:25;103231.66;;;3.74;72.68
61018;BME280;48171;51.550;5.434;2023-04-03T09:27:52;103245.97;;;3.81;70.50
61018;BME280;48171;51.550;5.434;2023-04-03T09:30:22;103239.03;;;3.81;66.19
61018;BME280;48171;51.550;5.434;2023-04-03T09:32:50;103237.75;;;3.90;63.12
61018;BME280;48171;51.550;5.434;2023-04-03T09:35:26;103227.50;;;3.93;62.01
61018;BME280;48171;51.550;5.434;2023-04-03T09:38:15;103228.75;;;3.99;60.81
61018;BME280;48171;51.550;5.434;2023-04-03T09:40:43;103232.47;;;4.03;58.58
61018;BME280;48171;51.550;5.434;2023-04-03T09:43:24;103218.00;;;4.10;59.64
61018;BME280;48171;51.550;5.434;2023-04-03T09:45:50;103213.97;;;4.15;60.00
61018;BME280;48171;51.550;5.434;2023-04-03T09:48:22;103222.97;;;4.20;60.02
61018;BME280;48171;51.550;5.434;2023-04-03T09:53:45;103220.16;;;4.32;56.11
61018;BME280;48171;51.550;5.434;2023-04-03T09:58:40;103209.31;;;4.40;52.61
61018;BME280;48171;51.550;5.434;2023-04-03T10:04:06;103199.53;;;4.53;53.83
61018;BME280;48171;51.550;5.434;2023-04-03T10:06:35;103195.44;;;4.58;53.21
61018;BME280;48171;51.550;5.434;2023-04-03T10:14:22;103199.91;;;4.75;51.93
61018;BME280;48171;51.550;5.434;2023-04-03T10:19:58;103197.72;;;4.83;50.01
61018;BME280;48171;51.550;5.434;2023-04-03T10:25:26;103180.59;;;4.90;52.87
61018;BME280;48171;51.550;5.434;2023-04-03T10:33:33;103168.72;;;5.13;51.65
61018;BME280;48171;51.550;5.434;2023-04-03T10:36:07;103177.97;;;5.22;49.65
61018;BME280;48171;51.550;5.434;2023-04-03T10:41:40;103164.59;;;5.34;50.30
61018;BME280;48171;51.550;5.434;2023-04-03T10:52:24;103144.31;;;5.65;49.28
61018;BME280;48171;51.550;5.434;2023-04-03T10:55:01;103158.78;;;5.74;51.37
61018;BME280;48171;51.550;5.434;2023-04-03T10:57:30;103140.56;;;5.77;46.36
61018;BME280;48171;51.550;5.434;2023-04-03T10:59:59;103145.13;;;5.81;47.02
61018;BME280;48171;51.550;5.434;2023-04-03T11:02:33;103154.06;;;5.85;45.27
61018;BME280;48171;51.550;5.434;2023-04-03T11:05:18;103143.66;;;5.87;46.80
61018;BME280;48171;51.550;5.434;2023-04-03T11:07:49;103137.66;;;5.89;44.02
61018;BME280;48171;51.550;5.434;2023-04-03T11:10:22;103130.03;;;5.94;48.17
61018;BME280;48171;51.550;5.434;2023-04-03T11:12:59;103135.44;;;5.97;43.56
61018;BME280;48171;51.550;5.434;2023-04-03T11:15:29;103131.31;;;6.02;47.44
61018;BME280;48171;51.550;5.434;2023-04-03T11:18:18;103125.63;;;6.11;49.28
61018;BME280;48171;51.550;5.434;2023-04-03T11:20:59;103129.44;;;6.17;46.33
61018;BME280;48171;51.550;5.434;2023-04-03T11:23:26;103125.03;;;6.16;43.54
61018;BME280;48171;51.550;5.434;2023-04-03T11:26:01;103120.78;;;6.20;44.88
61018;BME280;48171;51.550;5.434;2023-04-03T11:28:26;103124.47;;;6.24;44.76
61018;BME280;48171;51.550;5.434;2023-04-03T11:31:26;103118.78;;;6.32;49.26
61018;BME280;48171;51.550;5.434;2023-04-03T11:36:59;103109.53;;;6.40;46.26
61018;BME280;48171;51.550;5.434;2023-04-03T11:39:34;103100.97;;;6.45;45.10
61018;BME280;48171;51.550;5.434;2023-04-03T11:42:15;103099.34;;;6.48;46.44
61018;BME280;48171;51.550;5.434;2023-04-03T11:44:41;103107.47;;;6.53;44.41
61018;BME280;48171;51.550;5.434;2023-04-03T11:47:09;103098.81;;;6.55;43.79
61018;BME280;48171;51.550;5.434;2023-04-03T11:49:58;103103.66;;;6.66;46.21
61018;BME280;48171;51.550;5.434;2023-04-03T12:00:46;103100.22;;;6.86;42.00
61018;BME280;48171;51.550;5.434;2023-04-03T12:40:49;103060.63;;;7.87;44.75
61018;BME280;48171;51.550;5.434;2023-04-03T12:46:21;103056.25;;;7.87;41.51
61018;BME280;48171;51.550;5.434;2023-04-03T12:48:53;103058.13;;;7.90;44.56
61018;BME280;48171;51.550;5.434;2023-04-03T12:54:00;103037.25;;;7.94;43.24
61018;BME280;48171;51.550;5.434;2023-04-03T12:56:28;103037.16;;;7.93;42.80
61018;BME280;48171;51.550;5.434;2023-04-03T12:59:12;103024.78;;;7.90;42.89
61018;BME280;48171;51.550;5.434;2023-04-03T13:01:37;103037.81;;;7.87;41.82
61018;BME280;48171;51.550;5.434;2023-04-03T13:04:03;103034.38;;;7.88;43.04
61018;BME280;48171;51.550;5.434;2023-04-03T13:06:38;103034.44;;;7.90;42.59
61018;BME280;48171;51.550;5.434;2023-04-03T13:09:04;103037.06;;;7.90;43.00
61018;BME280;48171;51.550;5.434;2023-04-03T13:11:36;103030.06;;;7.90;43.57
61018;BME280;48171;51.550;5.434;2023-04-03T13:14:12;103013.41;;;7.91;44.15
61018;BME280;48171;51.550;5.434;2023-04-03T13:16:39;103043.53;;;7.98;43.17
61018;BME280;48171;51.550;5.434;2023-04-03T13:19:06;103019.88;;;7.99;43.44
61018;BME280;48171;51.550;5.434;2023-04-03T13:21:33;103020.91;;;8.03;43.02
61018;BME280;48171;51.550;5.434;2023-04-03T13:24:01;103013.94;;;8.05;44.93
61018;BME280;48171;51.550;5.434;2023-04-03T13:26:31;103007.06;;;8.09;44.91
61018;BME280;48171;51.550;5.434;2023-04-03T13:29:38;103013.41;;;8.14;44.69
61018;BME280;48171;51.550;5.434;2023-04-03T13:32:04;103010.97;;;8.18;46.76
61018;BME280;48171;51.550;5.434;2023-04-03T13:34:42;103005.91;;;8.25;45.96
61018;BME280;48171;51.550;5.434;2023-04-03T13:37:20;103005.13;;;8.27;44.33
61018;BME280;48171;51.550;5.434;2023-04-03T13:40:16;103018.44;;;8.30;46.07
61018;BME280;48171;51.550;5.434;2023-04-03T13:42:41;103010.63;;;8.33;43.17
61018;BME280;48171;51.550;5.434;2023-04-03T13:45:23;103005.34;;;8.33;43.02
61018;BME280;48171;51.550;5.434;2023-04-03T13:47:53;103006.38;;;8.37;41.59
61018;BME280;48171;51.550;5.434;2023-04-03T13:50:23;102996.97;;;8.44;44.58
61018;BME280;48171;51.550;5.434;2023-04-03T13:53:00;103005.03;;;8.48;43.73
61018;BME280;48171;51.550;5.434;2023-04-03T13:55:35;102979.63;;;8.49;42.18
61018;BME280;48171;51.550;5.434;2023-04-03T14:00:38;102986.72;;;8.51;42.74
61018;BME280;48171;51.550;5.434;2023-04-03T14:03:31;102991.41;;;8.58;46.32
61018;BME280;48171;51.550;5.434;2023-04-03T14:05:57;102987.75;;;8.55;42.50
61018;BME280;48171;51.550;5.434;2023-04-03T14:08:23;102985.19;;;8.56;43.95
61018;BME280;48171;51.550;5.434;2023-04-03T14:10:49;102989.72;;;8.60;43.01
61018;BME280;48171;51.550;5.434;2023-04-03T14:13:16;102990.69;;;8.64;43.76
61018;BME280;48171;51.550;5.434;2023-04-03T14:15:42;102972.31;;;8.66;45.10
61018;BME280;48171;51.550;5.434;2023-04-03T14:18:18;102989.94;;;8.67;42.53
61018;BME280;48171;51.550;5.434;2023-04-03T14:20:44;102970.53;;;8.65;42.33
61018;BME280;48171;51.550;5.434;2023-04-03T14:23:09;102977.63;;;8.67;44.51
61018;BME280;48171;51.550;5.434;2023-04-03T14:25:35;102984.69;;;8.68;42.53
61018;BME280;48171;51.550;5.434;2023-04-03T14:28:01;102982.78;;;8.64;42.75
61018;BME280;48171;51.550;5.434;2023-04-03T14:30:30;102974.13;;;8.67;44.68
61018;BME280;48171;51.550;5.434;2023-04-03T14:32:56;102983.19;;;8.75;45.75
61018;BME280;48171;51.550;5.434;2023-04-03T14:35:22;102976.16;;;8.75;43.52
61018;BME280;48171;51.550;5.434;2023-04-03T14:37:47;102975.22;;;8.73;43.66
61018;BME280;48171;51.550;5.434;2023-04-03T14:40:20;102974.41;;;8.76;45.05
61018;BME280;48171;51.550;5.434;2023-04-03T14:42:46;102975.31;;;8.76;44.24
61018;BME280;48171;51.550;5.434;2023-04-03T14:45:13;102974.41;;;8.76;43.72
61018;BME280;48171;51.550;5.434;2023-04-03T14:47:47;102990.16;;;8.74;44.47
61018;BME280;48171;51.550;5.434;2023-04-03T14:50:17;102981.44;;;8.75;44.99